Pagrindinis puslapis
METAR-TAF:

METAR-TAF

Oro uostai :

Kalė, Prancūzija

platuma: 50-57-39N, ilguma: 001-57-05E, Aukštis: 4 m

Dabartinis oras

Ataskaita buvo paskelbta 4 valandos ir 46 minutes, ne 20:00 UTC
Vėjas 10 kt iš Rytų/Šiaurės Rytų
Temperatūra 12°C
Drėgmė 67%
Slėgis 1025 hPa
Matomumas 10 km arba daugiau
nėra debesų žemiau 1500 m ir nėra kamuolinių lietaus debesų

METAR: LFAC 092000Z AUTO 06010KT CAVOK 12/06 Q1025

Laikas: 02:46 (00:46 UTC)


TAF: trūkstamas

Orai ataskaitas ir orų prognozės (METAR, TAF).

turimą stotys yra geltonos ir raudonos taškus žemėlapyje.

Perkelti pele per norėdami pamatyti stoties vardą.

Tada spustelėkite, norėdami matyti oro stebėjimo ir prognozės.

Norėdami pakeisti žemėlapį: spustelėkite ant žalios mygtukų su juodo kryžiaus žemyn,; žalią mygtuką su brūkšneliu, jei norite nutolinti; arba žalių rodyklių gretimoms žemėlapius.


METAR-TAF: